createdAt,value
2023-05-15T00:00:44.568Z,100591.94
2023-05-15T00:03:12.286Z,100598.84
2023-05-15T00:05:39.466Z,100603.50
2023-05-15T00:08:06.313Z,100593.03
2023-05-15T00:10:32.714Z,100600.13
2023-05-15T00:12:59.192Z,100594.56
2023-05-15T00:15:26.008Z,100595.03
2023-05-15T00:17:52.833Z,100602.44
2023-05-15T00:20:19.365Z,100599.16
2023-05-15T00:22:45.934Z,100605.25
2023-05-15T00:25:12.393Z,100586.00
2023-05-15T00:27:38.872Z,100587.50
2023-05-15T00:30:05.934Z,100583.94
2023-05-15T00:32:32.397Z,100585.50
2023-05-15T00:34:58.829Z,100584.59
2023-05-15T00:37:25.387Z,100579.09
2023-05-15T00:39:51.820Z,100576.34
2023-05-15T00:42:18.998Z,100580.69
2023-05-15T00:44:45.956Z,100573.53
2023-05-15T00:47:12.542Z,100567.38
2023-05-15T00:49:39.547Z,100571.88
2023-05-15T00:52:08.396Z,100566.63
2023-05-15T00:54:35.378Z,100570.09
2023-05-15T00:57:03.870Z,100565.03
2023-05-15T00:59:31.819Z,100566.00
2023-05-15T01:01:58.316Z,100570.78
2023-05-15T01:04:25.069Z,100563.53
2023-05-15T01:06:53.924Z,100557.47
2023-05-15T01:09:23.634Z,100564.28
2023-05-15T01:11:53.443Z,100566.03
2023-05-15T01:14:20.000Z,100570.44
2023-05-15T01:16:46.486Z,100575.25
2023-05-15T01:19:12.993Z,100558.69
2023-05-15T01:21:57.200Z,100556.91
2023-05-15T01:24:50.792Z,100564.56
2023-05-15T01:27:32.622Z,100561.94
2023-05-15T01:30:23.685Z,100563.59
2023-05-15T01:33:22.542Z,100557.53
2023-05-15T01:35:51.963Z,100558.97
2023-05-15T01:38:21.371Z,100560.47
2023-05-15T01:40:59.751Z,100559.38
2023-05-15T01:43:30.121Z,100562.38
2023-05-15T01:45:58.734Z,100551.50
2023-05-15T01:48:28.408Z,100549.41
2023-05-15T01:50:57.938Z,100548.97
2023-05-15T01:53:26.425Z,100554.00
2023-05-15T01:55:54.523Z,100549.50
2023-05-15T01:58:21.033Z,100551.22
2023-05-15T02:00:48.719Z,100550.31
2023-05-15T02:03:15.737Z,100553.19
2023-05-15T02:05:42.860Z,100553.09
2023-05-15T02:08:11.062Z,100554.81
2023-05-15T02:10:37.978Z,100555.88
2023-05-15T02:13:07.315Z,100563.53
2023-05-15T02:15:34.378Z,100565.13
2023-05-15T02:18:00.968Z,100570.34
2023-05-15T02:20:27.622Z,100560.50
2023-05-15T02:22:54.226Z,100568.16
2023-05-15T02:25:32.808Z,100561.78
2023-05-15T02:28:01.251Z,100564.28
2023-05-15T02:30:56.382Z,100570.25
2023-05-15T02:33:38.361Z,100571.81
2023-05-15T02:36:11.261Z,100574.38
2023-05-15T02:38:44.618Z,100567.34
2023-05-15T02:41:11.552Z,100564.63
2023-05-15T02:43:39.803Z,100561.91
2023-05-15T02:46:07.518Z,100557.56
2023-05-15T02:48:35.655Z,100576.06
2023-05-15T02:51:02.466Z,100566.50
2023-05-15T02:53:29.668Z,100559.47
2023-05-15T02:55:56.115Z,100564.97
2023-05-15T02:58:22.610Z,100567.66
2023-05-15T03:00:49.137Z,100559.69
2023-05-15T03:03:15.663Z,100566.00
2023-05-15T03:05:42.158Z,100562.56
2023-05-15T03:08:08.572Z,100570.50
2023-05-15T03:10:35.062Z,100570.28
2023-05-15T03:13:02.400Z,100566.81
2023-05-15T03:15:28.839Z,100564.03
2023-05-15T03:17:55.476Z,100564.00
2023-05-15T03:20:22.081Z,100559.66
2023-05-15T03:22:48.541Z,100565.81
2023-05-15T03:25:16.233Z,100554.53
2023-05-15T03:27:42.666Z,100560.56
2023-05-15T03:30:09.621Z,100566.00
2023-05-15T03:32:36.142Z,100565.09
2023-05-15T03:35:02.830Z,100565.28
2023-05-15T03:37:29.267Z,100561.03
2023-05-15T03:39:55.845Z,100571.44
2023-05-15T03:42:23.669Z,100570.88
2023-05-15T03:44:50.915Z,100571.03
2023-05-15T03:47:18.006Z,100576.22
2023-05-15T03:49:45.431Z,100577.19
2023-05-15T03:52:12.203Z,100567.53
2023-05-15T03:54:40.375Z,100574.47
2023-05-15T03:57:06.880Z,100578.16
2023-05-15T03:59:33.700Z,100575.59
2023-05-15T04:02:04.724Z,100572.19
2023-05-15T04:04:32.060Z,100571.19
2023-05-15T04:06:58.569Z,100572.75
2023-05-15T04:09:25.000Z,100571.16
2023-05-15T04:11:51.430Z,100573.78
2023-05-15T04:14:17.881Z,100570.47
2023-05-15T04:16:44.493Z,100568.84
2023-05-15T04:19:11.081Z,100562.81
2023-05-15T04:21:37.527Z,100569.25
2023-05-15T04:24:04.240Z,100573.59
2023-05-15T04:26:31.463Z,100572.84
2023-05-15T04:29:04.021Z,100584.88
2023-05-15T04:31:31.571Z,100585.22
2023-05-15T04:33:58.293Z,100586.00
2023-05-15T04:36:24.796Z,100588.50
2023-05-15T04:38:51.688Z,100578.19
2023-05-15T04:41:18.620Z,100578.09
2023-05-15T04:43:45.074Z,100582.47
2023-05-15T04:46:11.624Z,100574.66
2023-05-15T04:48:38.164Z,100577.31
2023-05-15T04:51:04.699Z,100570.53
2023-05-15T04:53:31.195Z,100573.84
2023-05-15T04:55:57.601Z,100574.78
2023-05-15T04:58:24.206Z,100577.28
2023-05-15T05:00:50.882Z,100579.16
2023-05-15T05:03:17.464Z,100579.16
2023-05-15T05:05:43.980Z,100582.84
2023-05-15T05:08:10.462Z,100574.06
2023-05-15T05:10:37.047Z,100579.31
2023-05-15T05:13:03.537Z,100580.06
2023-05-15T05:15:30.026Z,100580.59
2023-05-15T05:17:56.627Z,100577.06
2023-05-15T05:20:23.204Z,100585.78
2023-05-15T05:22:49.716Z,100580.53
2023-05-15T05:25:16.316Z,100583.97
2023-05-15T05:27:42.999Z,100583.16
2023-05-15T05:30:09.977Z,100585.59
2023-05-15T05:32:36.523Z,100584.72
2023-05-15T05:35:04.012Z,100584.88
2023-05-15T05:37:30.505Z,100584.88
2023-05-15T05:39:57.025Z,100582.03
2023-05-15T05:42:23.441Z,100585.47
2023-05-15T05:44:49.949Z,100590.63
2023-05-15T05:47:16.574Z,100593.25
2023-05-15T05:49:43.493Z,100593.19
2023-05-15T05:52:10.119Z,100586.09
2023-05-15T05:54:37.021Z,100593.84
2023-05-15T05:57:03.680Z,100592.22
2023-05-15T05:59:30.585Z,100596.09
2023-05-15T06:01:57.261Z,100594.34
2023-05-15T06:04:23.873Z,100592.63
2023-05-15T06:06:50.420Z,100596.25
2023-05-15T06:09:17.401Z,100604.19
2023-05-15T06:11:43.831Z,100594.81
2023-05-15T06:14:10.413Z,100601.13
2023-05-15T06:16:36.963Z,100602.09
2023-05-15T06:19:03.461Z,100606.34
2023-05-15T06:21:30.023Z,100599.63
2023-05-15T06:23:56.450Z,100601.34
2023-05-15T06:26:23.062Z,100590.66
2023-05-15T06:28:49.467Z,100608.91
2023-05-15T06:31:17.300Z,100596.84
2023-05-15T06:33:43.848Z,100603.44
2023-05-15T06:36:11.491Z,100603.19
2023-05-15T06:38:37.968Z,100606.59
2023-05-15T06:41:04.507Z,100605.81
2023-05-15T06:43:30.958Z,100611.00
2023-05-15T06:45:57.432Z,100608.09
2023-05-15T06:48:23.896Z,100614.03
2023-05-15T06:50:50.319Z,100617.59
2023-05-15T06:53:17.816Z,100615.00
2023-05-15T06:55:44.282Z,100628.16
2023-05-15T06:58:10.735Z,100621.50
2023-05-15T07:00:37.162Z,100625.00
2023-05-15T07:03:03.826Z,100632.88
2023-05-15T07:05:30.761Z,100627.28
2023-05-15T07:07:57.311Z,100627.19
2023-05-15T07:10:24.049Z,100628.03
2023-05-15T07:12:50.750Z,100634.59
2023-05-15T07:15:17.639Z,100629.53
2023-05-15T07:17:44.374Z,100632.22
2023-05-15T07:20:11.279Z,100628.78
2023-05-15T07:22:51.848Z,100639.13
2023-05-15T07:25:21.988Z,100626.06
2023-05-15T07:27:48.431Z,100629.53
2023-05-15T07:30:15.242Z,100629.97
2023-05-15T07:32:41.882Z,100630.50
2023-05-15T07:35:08.951Z,100639.63
2023-05-15T07:37:35.499Z,100637.88
2023-05-15T07:40:01.993Z,100628.31
2023-05-15T07:42:28.498Z,100631.38
2023-05-15T07:44:55.005Z,100629.41
2023-05-15T07:47:21.563Z,100632.16
2023-05-15T07:49:48.138Z,100629.31
2023-05-15T07:52:14.670Z,100630.84
2023-05-15T07:54:43.769Z,100632.16
2023-05-15T07:57:10.345Z,100623.28
2023-05-15T07:59:36.891Z,100628.44
2023-05-15T08:02:03.655Z,100631.28
2023-05-15T08:04:30.158Z,100623.59
2023-05-15T08:06:56.993Z,100632.84
2023-05-15T08:09:23.451Z,100623.78
2023-05-15T08:11:49.925Z,100618.97
2023-05-15T08:14:16.482Z,100623.72
2023-05-15T08:16:42.941Z,100620.66
2023-05-15T08:19:10.314Z,100633.81
2023-05-15T08:21:36.910Z,100620.19
2023-05-15T08:24:03.515Z,100620.06
2023-05-15T08:26:29.990Z,100624.59
2023-05-15T08:28:56.427Z,100615.50
2023-05-15T08:31:22.894Z,100620.47
2023-05-15T08:33:49.350Z,100618.59
2023-05-15T08:36:18.185Z,100614.97
2023-05-15T08:38:44.749Z,100622.72
2023-05-15T08:41:32.895Z,100623.56
2023-05-15T08:44:09.421Z,100613.03
2023-05-15T08:46:36.444Z,100612.19
2023-05-15T08:49:15.242Z,100612.75
2023-05-15T08:51:41.853Z,100613.22
2023-05-15T08:54:08.691Z,100616.59
2023-05-15T08:56:36.125Z,100621.72
2023-05-15T08:59:03.700Z,100616.34
2023-05-15T09:01:30.647Z,100617.88
2023-05-15T09:03:57.175Z,100614.97
2023-05-15T09:06:25.037Z,100616.38
2023-05-15T09:08:56.212Z,100610.94
2023-05-15T09:11:24.717Z,100607.41
2023-05-15T09:13:51.289Z,100615.19
2023-05-15T09:16:17.928Z,100621.97
2023-05-15T09:18:45.620Z,100605.31
2023-05-15T09:21:26.109Z,100610.47
2023-05-15T09:23:54.804Z,100612.56
2023-05-15T09:26:21.958Z,100617.56
2023-05-15T09:28:49.222Z,100602.81
2023-05-15T09:31:19.567Z,100598.34
2023-05-15T09:33:46.316Z,100602.75
2023-05-15T09:36:21.619Z,100596.19
2023-05-15T09:38:49.694Z,100597.59
2023-05-15T09:41:24.955Z,100585.81
2023-05-15T09:43:51.521Z,100597.84
2023-05-15T09:46:18.098Z,100595.06
2023-05-15T09:48:44.830Z,100593.69
2023-05-15T09:51:16.745Z,100598.47
2023-05-15T09:53:43.483Z,100593.84
2023-05-15T09:56:10.515Z,100587.44
2023-05-15T09:58:36.989Z,100584.63
2023-05-15T10:01:04.207Z,100584.19
2023-05-15T10:03:30.762Z,100580.53
2023-05-15T10:06:02.032Z,100583.50
2023-05-15T10:08:29.193Z,100584.59
2023-05-15T10:10:59.920Z,100581.06
2023-05-15T10:13:26.715Z,100586.94
2023-05-15T10:15:55.398Z,100582.56
2023-05-15T10:18:24.953Z,100582.47
2023-05-15T10:20:51.692Z,100574.66
2023-05-15T10:23:20.417Z,100578.72
2023-05-15T10:26:03.079Z,100576.56
2023-05-15T10:28:31.412Z,100580.25
2023-05-15T10:31:01.343Z,100576.38
2023-05-15T10:33:29.675Z,100588.03
2023-05-15T10:35:56.864Z,100586.56
2023-05-15T10:38:23.973Z,100571.69
2023-05-15T10:40:57.626Z,100571.00
2023-05-15T10:43:30.195Z,100570.75
2023-05-15T10:45:57.082Z,100565.69
2023-05-15T10:48:24.960Z,100564.50
2023-05-15T10:50:52.080Z,100565.50
2023-05-15T10:53:20.225Z,100561.72
2023-05-15T10:55:49.415Z,100556.31
2023-05-15T10:58:15.997Z,100548.19
2023-05-15T11:00:45.037Z,100549.88
2023-05-15T11:03:16.124Z,100540.00
2023-05-15T11:06:09.719Z,100545.63
2023-05-15T11:08:37.996Z,100553.56
2023-05-15T11:11:04.566Z,100542.13
2023-05-15T11:14:09.421Z,100544.78
2023-05-15T11:16:54.320Z,100542.69
2023-05-15T11:20:00.173Z,100535.84
2023-05-15T11:22:36.078Z,100529.47
2023-05-15T11:25:06.285Z,100532.56
2023-05-15T11:27:46.834Z,100534.72
2023-05-15T11:30:20.456Z,100517.78
2023-05-15T11:32:46.896Z,100521.03
2023-05-15T11:35:43.797Z,100538.41
2023-05-15T11:38:10.248Z,100520.75
2023-05-15T11:40:48.962Z,100522.91
2023-05-15T11:43:32.176Z,100517.09
2023-05-15T11:45:59.968Z,100514.50
2023-05-15T11:48:35.539Z,100512.34
2023-05-15T11:51:02.525Z,100516.69
2023-05-15T11:53:30.549Z,100510.38
2023-05-15T11:55:57.053Z,100503.53
2023-05-15T11:58:25.382Z,100509.06
2023-05-15T12:00:53.588Z,100506.69
2023-05-15T12:03:32.388Z,100498.34
2023-05-15T12:06:01.958Z,100499.16
2023-05-15T12:08:33.416Z,100494.84
2023-05-15T12:11:01.185Z,100495.97
2023-05-15T12:13:28.315Z,100498.91
2023-05-15T12:15:55.796Z,100503.81
2023-05-15T12:18:22.786Z,100488.06
2023-05-15T12:20:52.073Z,100489.47
2023-05-15T12:23:21.679Z,100489.94
2023-05-15T12:25:50.996Z,100478.94
2023-05-15T12:28:17.944Z,100484.53
2023-05-15T12:30:44.893Z,100485.22
2023-05-15T12:33:11.775Z,100504.38
2023-05-15T12:35:43.457Z,100488.13
2023-05-15T12:38:15.673Z,100480.06
2023-05-15T12:40:44.042Z,100485.13
2023-05-15T12:43:11.123Z,100490.78
2023-05-15T12:45:42.232Z,100484.16
2023-05-15T12:48:15.001Z,100501.28
2023-05-15T12:50:44.714Z,100488.44
2023-05-15T12:53:15.325Z,100485.13
2023-05-15T12:55:43.548Z,100481.63
2023-05-15T12:58:12.367Z,100471.44
2023-05-15T13:00:44.870Z,100479.41
2023-05-15T13:03:12.390Z,100494.06
2023-05-15T13:05:42.930Z,100491.97
2023-05-15T13:08:09.662Z,100504.00
2023-05-15T13:10:37.813Z,100485.72
2023-05-15T13:13:04.520Z,100479.53
2023-05-15T13:15:36.275Z,100474.84
2023-05-15T13:18:10.673Z,100469.75
2023-05-15T13:20:45.869Z,100476.31
2023-05-15T13:23:15.054Z,100466.59
2023-05-15T13:25:42.255Z,100467.53
2023-05-15T13:28:10.851Z,100469.31
2023-05-15T13:30:41.353Z,100483.63
2023-05-15T13:33:08.878Z,100476.66
2023-05-15T13:35:36.481Z,100471.50
2023-05-15T13:38:03.089Z,100469.09
2023-05-15T13:40:31.093Z,100461.13
2023-05-15T13:42:57.587Z,100466.50
2023-05-15T13:45:24.122Z,100462.97
2023-05-15T13:47:51.093Z,100457.19
2023-05-15T13:50:17.730Z,100462.22
2023-05-15T13:52:44.708Z,100469.63
2023-05-15T13:55:11.458Z,100468.47
2023-05-15T13:57:42.743Z,100474.59
2023-05-15T14:00:12.858Z,100488.41
2023-05-15T14:02:44.046Z,100474.69
2023-05-15T14:05:12.369Z,100476.56
2023-05-15T14:07:38.861Z,100482.56
2023-05-15T14:10:06.335Z,100476.69
2023-05-15T14:12:33.065Z,100472.03
2023-05-15T14:15:00.616Z,100495.41
2023-05-15T14:17:28.020Z,100479.81
2023-05-15T14:19:54.982Z,100482.75
2023-05-15T14:22:24.776Z,100490.28
2023-05-15T14:24:54.565Z,100475.47
2023-05-15T14:27:21.189Z,100470.47
2023-05-15T14:29:49.027Z,100480.50
2023-05-15T14:32:16.548Z,100467.16
2023-05-15T14:34:43.401Z,100481.78
2023-05-15T14:37:10.011Z,100472.81
2023-05-15T14:39:36.506Z,100472.22
2023-05-15T14:42:02.963Z,100495.53
2023-05-15T14:44:29.542Z,100481.22
2023-05-15T14:47:12.980Z,100493.00
2023-05-15T14:49:40.438Z,100483.19
2023-05-15T14:52:09.580Z,100482.50
2023-05-15T14:54:36.449Z,100491.38
2023-05-15T14:57:03.723Z,100491.34
2023-05-15T14:59:30.492Z,100488.31
2023-05-15T15:01:57.077Z,100504.47
2023-05-15T15:04:23.510Z,100523.78
2023-05-15T15:06:50.116Z,100505.91
2023-05-15T15:09:18.303Z,100500.16
2023-05-15T15:11:45.987Z,100488.38
2023-05-15T15:14:12.442Z,100497.09
2023-05-15T15:16:39.046Z,100508.03
2023-05-15T15:19:05.740Z,100497.34
2023-05-15T15:21:32.280Z,100505.03
2023-05-15T15:23:58.744Z,100511.28
2023-05-15T15:26:25.900Z,100504.56
2023-05-15T15:28:52.517Z,100512.66
2023-05-15T15:31:19.094Z,100502.75
2023-05-15T15:33:59.611Z,100510.78
2023-05-15T15:36:26.162Z,100534.56
2023-05-15T15:38:52.685Z,100505.53
2023-05-15T15:41:21.263Z,100516.75
2023-05-15T15:43:47.942Z,100523.09
2023-05-15T15:46:14.497Z,100521.19
2023-05-15T15:48:41.064Z,100527.16
2023-05-15T15:51:07.505Z,100527.47
2023-05-15T15:53:34.885Z,100531.56
2023-05-15T15:56:01.695Z,100539.94
2023-05-15T15:58:29.898Z,100544.88
2023-05-15T16:00:57.335Z,100537.97
2023-05-15T16:03:24.157Z,100543.09
2023-05-15T16:05:51.625Z,100543.53
2023-05-15T16:08:18.177Z,100546.25
2023-05-15T16:10:44.761Z,100541.16
2023-05-15T16:13:11.735Z,100539.03
2023-05-15T16:15:38.153Z,100536.03
2023-05-15T16:18:04.772Z,100543.72
2023-05-15T16:20:32.325Z,100557.84
2023-05-15T16:22:59.327Z,100552.00
2023-05-15T16:25:25.786Z,100548.28
2023-05-15T16:27:52.348Z,100552.72
2023-05-15T16:30:18.919Z,100539.63
2023-05-15T16:32:45.509Z,100560.22
2023-05-15T16:35:12.051Z,100558.97
2023-05-15T16:37:38.861Z,100538.91
2023-05-15T16:40:06.120Z,100554.47
2023-05-15T16:42:38.055Z,100546.84
2023-05-15T16:45:05.528Z,100555.97
2023-05-15T16:47:32.122Z,100541.97
2023-05-15T16:49:58.675Z,100548.81
2023-05-15T16:52:25.229Z,100542.19
2023-05-15T16:54:51.727Z,100546.72
2023-05-15T16:57:18.492Z,100558.72
2023-05-15T16:59:44.879Z,100567.31
2023-05-15T17:02:11.423Z,100562.44
2023-05-15T17:04:37.970Z,100562.38
2023-05-15T17:07:05.177Z,100560.16
2023-05-15T17:09:33.006Z,100564.50
2023-05-15T17:12:00.421Z,100567.72
2023-05-15T17:14:27.049Z,100571.34
2023-05-15T17:16:53.579Z,100567.50
2023-05-15T17:19:20.193Z,100569.88
2023-05-15T17:21:46.728Z,100563.88
2023-05-15T17:24:14.924Z,100569.44
2023-05-15T17:26:41.774Z,100559.53
2023-05-15T17:29:08.362Z,100561.28
2023-05-15T17:31:35.752Z,100562.31
2023-05-15T17:34:02.274Z,100570.56
2023-05-15T17:36:28.746Z,100565.28
2023-05-15T17:38:55.234Z,100563.50
2023-05-15T17:41:22.039Z,100576.59
2023-05-15T17:43:49.364Z,100573.34
2023-05-15T17:46:15.805Z,100586.94
2023-05-15T17:48:42.337Z,100587.00
2023-05-15T17:51:08.813Z,100587.03
2023-05-15T17:53:35.428Z,100594.31
2023-05-15T17:56:03.695Z,100596.88
2023-05-15T17:58:30.264Z,100592.69
2023-05-15T18:00:57.125Z,100599.03
2023-05-15T18:03:23.830Z,100597.44
2023-05-15T18:05:51.858Z,100597.47
2023-05-15T18:08:18.605Z,100598.41
2023-05-15T18:10:45.800Z,100604.63
2023-05-15T18:13:12.507Z,100604.75
2023-05-15T18:15:39.275Z,100603.97
2023-05-15T18:18:06.346Z,100609.47
2023-05-15T18:20:32.863Z,100620.75
2023-05-15T18:22:59.289Z,100617.41
2023-05-15T18:25:26.571Z,100615.00
2023-05-15T18:27:53.386Z,100622.25
2023-05-15T18:30:19.882Z,100622.72
2023-05-15T18:32:46.383Z,100628.22
2023-05-15T18:35:12.880Z,100635.91
2023-05-15T18:37:39.358Z,100645.28
2023-05-15T18:40:06.378Z,100639.53
2023-05-15T18:42:32.934Z,100654.81
2023-05-15T18:44:59.387Z,100648.97
2023-05-15T18:47:26.029Z,100647.16
2023-05-15T18:49:53.315Z,100655.31
2023-05-15T18:52:21.329Z,100658.44
2023-05-15T18:54:48.236Z,100655.75
2023-05-15T18:57:14.738Z,100661.06
2023-05-15T18:59:41.787Z,100661.88
2023-05-15T19:02:09.583Z,100675.31
2023-05-15T19:04:36.326Z,100671.97
2023-05-15T19:07:02.841Z,100675.66
2023-05-15T19:09:29.409Z,100685.34
2023-05-15T19:11:55.809Z,100692.28
2023-05-15T19:14:22.249Z,100689.00
2023-05-15T19:16:48.763Z,100701.72
2023-05-15T19:19:15.280Z,100698.53
2023-05-15T19:21:41.799Z,100701.19
2023-05-15T19:24:08.685Z,100696.09
2023-05-15T19:26:35.453Z,100704.84
2023-05-15T19:29:01.922Z,100712.69
2023-05-15T19:31:31.713Z,100718.13
2023-05-15T19:33:59.550Z,100717.59
2023-05-15T19:36:26.094Z,100724.00
2023-05-15T19:38:53.032Z,100726.78
2023-05-15T19:41:19.548Z,100725.06
2023-05-15T19:43:46.945Z,100728.72
2023-05-15T19:46:13.908Z,100736.44
2023-05-15T19:48:40.756Z,100727.91
2023-05-15T19:51:07.355Z,100734.84
2023-05-15T19:53:33.929Z,100730.53
2023-05-15T19:56:00.447Z,100735.75
2023-05-15T19:58:26.972Z,100751.59
2023-05-15T20:00:54.043Z,100748.13
2023-05-15T20:03:21.360Z,100744.72
2023-05-15T20:05:48.301Z,100770.88
2023-05-15T20:08:16.853Z,100756.28
2023-05-15T20:10:43.388Z,100758.88
2023-05-15T20:13:10.448Z,100755.31
2023-05-15T20:15:39.977Z,100755.38
2023-05-15T20:18:07.234Z,100763.16
2023-05-15T20:20:33.977Z,100765.84
2023-05-15T20:23:00.381Z,100761.59
2023-05-15T20:25:27.272Z,100768.97
2023-05-15T20:27:56.958Z,100771.03
2023-05-15T20:30:24.140Z,100767.53
2023-05-15T20:32:50.900Z,100764.16
2023-05-15T20:35:17.538Z,100766.09
2023-05-15T20:37:44.300Z,100764.38
2023-05-15T20:40:12.805Z,100766.97
2023-05-15T20:42:39.993Z,100766.84
2023-05-15T20:45:08.569Z,100750.16
2023-05-15T20:47:35.748Z,100751.06
2023-05-15T20:50:02.312Z,100754.41
2023-05-15T20:52:28.877Z,100757.19
2023-05-15T20:54:55.454Z,100753.69
2023-05-15T20:57:21.913Z,100761.81
2023-05-15T20:59:48.319Z,100763.56
2023-05-15T21:02:14.926Z,100764.53
2023-05-15T21:04:41.577Z,100758.53
2023-05-15T21:07:08.320Z,100779.44
2023-05-15T21:09:34.762Z,100774.22
2023-05-15T21:12:01.335Z,100773.47
2023-05-15T21:14:27.859Z,100775.06
2023-05-15T21:16:54.385Z,100778.72
2023-05-15T21:19:21.572Z,100780.34
2023-05-15T21:21:48.121Z,100773.56
2023-05-15T21:24:14.712Z,100778.97
2023-05-15T21:26:41.180Z,100777.97
2023-05-15T21:29:08.409Z,100779.63
2023-05-15T21:31:34.986Z,100778.75
2023-05-15T21:34:01.491Z,100778.13
2023-05-15T21:36:27.964Z,100788.84
2023-05-15T21:38:54.421Z,100779.38
2023-05-15T21:41:20.852Z,100777.63
2023-05-15T21:43:47.336Z,100783.13
2023-05-15T21:46:13.835Z,100786.53
2023-05-15T21:48:40.353Z,100784.94
2023-05-15T21:51:06.856Z,100798.19
2023-05-15T21:53:33.413Z,100790.41
2023-05-15T21:56:00.947Z,100794.53
2023-05-15T21:58:27.624Z,100792.66
2023-05-15T22:00:54.220Z,100787.47
2023-05-15T22:03:21.736Z,100803.50
2023-05-15T22:05:50.060Z,100803.72
2023-05-15T22:08:16.983Z,100803.72
2023-05-15T22:10:43.569Z,100793.38
2023-05-15T22:13:10.146Z,100787.88
2023-05-15T22:15:36.967Z,100791.47
2023-05-15T22:18:05.595Z,100788.97
2023-05-15T22:20:32.915Z,100789.78
2023-05-15T22:22:59.461Z,100792.34
2023-05-15T22:25:25.945Z,100793.34
2023-05-15T22:27:52.586Z,100790.78
2023-05-15T22:30:19.285Z,100791.81
2023-05-15T22:32:46.050Z,100789.41
2023-05-15T22:35:13.201Z,100798.94
2023-05-15T22:37:41.932Z,100795.56
2023-05-15T22:40:10.148Z,100793.13
2023-05-15T22:42:36.604Z,100795.97
2023-05-15T22:45:04.107Z,100800.34
2023-05-15T22:47:31.046Z,100795.09
2023-05-15T22:49:57.595Z,100797.91
2023-05-15T22:52:24.147Z,100802.28
2023-05-15T22:54:50.677Z,100803.28
2023-05-15T22:57:17.236Z,100806.88
2023-05-15T22:59:44.448Z,100798.94
2023-05-15T23:02:10.954Z,100808.69
2023-05-15T23:04:37.401Z,100811.25
2023-05-15T23:07:04.055Z,100809.50
2023-05-15T23:09:30.531Z,100809.00
2023-05-15T23:11:57.089Z,100803.13
2023-05-15T23:14:24.129Z,100804.03
2023-05-15T23:16:50.754Z,100808.50
2023-05-15T23:19:17.300Z,100800.84
2023-05-15T23:21:43.845Z,100813.13
2023-05-15T23:24:10.338Z,100803.66
2023-05-15T23:26:36.803Z,100799.19
2023-05-15T23:29:03.296Z,100802.72
2023-05-15T23:31:29.954Z,100798.19
2023-05-15T23:33:56.600Z,100804.47
2023-05-15T23:36:23.171Z,100804.63
2023-05-15T23:38:49.680Z,100809.94
2023-05-15T23:41:16.592Z,100806.34
2023-05-15T23:43:43.034Z,100804.69
2023-05-15T23:46:09.572Z,100809.94
2023-05-15T23:48:36.034Z,100801.38
2023-05-15T23:51:02.515Z,100803.97
2023-05-15T23:53:29.072Z,100805.72
2023-05-15T23:55:55.519Z,100805.06
2023-05-15T23:58:21.948Z,100812.88
